Terminal Aerodrome Forecast
Issued by NWS

Home | Current Version | Previous Version | Text Only | Print | Product List | Glossary On
Versions: 1 2 3 4 5 6 7 8 9 10 11 12 13 14 15
000
FTUS44 KLIX 251359 AAA
TAFGPT
TAF AMD
KGPT 251359Z 2514/2612 15011KT P6SM VCTS OVC015CB
      TEMPO 2514/2515 VRB10G20KT 2SM TSRA OVC010CB
     FM252200 15011KT P6SM OVC070=

USA.gov is the U.S. government's official web portal to all federal, state and local government web resources and services.